createdAt,value
2023-05-21T00:02:18.764Z,66.13
2023-05-21T00:04:45.377Z,66.10
2023-05-21T00:07:12.645Z,65.48
2023-05-21T00:09:39.544Z,66.26
2023-05-21T00:12:07.177Z,66.74
2023-05-21T00:14:34.253Z,67.55
2023-05-21T00:17:00.726Z,67.71
2023-05-21T00:19:27.342Z,68.08
2023-05-21T00:21:54.722Z,67.87
2023-05-21T00:24:21.231Z,66.55
2023-05-21T00:26:47.665Z,66.83
2023-05-21T00:29:14.097Z,67.75
2023-05-21T00:31:40.573Z,67.29
2023-05-21T00:34:06.956Z,68.39
2023-05-21T00:36:34.644Z,67.65
2023-05-21T00:39:02.312Z,67.48
2023-05-21T00:41:30.134Z,68.25
2023-05-21T00:43:57.116Z,68.30
2023-05-21T00:46:23.965Z,68.35
2023-05-21T00:48:51.025Z,68.14
2023-05-21T00:51:18.467Z,68.89
2023-05-21T00:53:45.898Z,68.51
2023-05-21T00:56:12.457Z,69.27
2023-05-21T00:58:39.732Z,68.46
2023-05-21T01:01:06.728Z,68.49
2023-05-21T01:03:38.574Z,68.17
2023-05-21T01:06:06.800Z,68.79
2023-05-21T01:08:35.050Z,68.87
2023-05-21T01:11:03.112Z,69.18
2023-05-21T01:13:31.387Z,68.72
2023-05-21T01:15:59.158Z,68.56
2023-05-21T01:18:26.767Z,69.57
2023-05-21T01:20:53.580Z,69.61
2023-05-21T01:23:20.576Z,69.38
2023-05-21T01:25:47.271Z,69.50
2023-05-21T01:28:14.050Z,69.40
2023-05-21T01:30:42.780Z,69.86
2023-05-21T01:33:17.412Z,69.17
2023-05-21T01:35:46.811Z,70.20
2023-05-21T01:38:29.283Z,69.49
2023-05-21T01:41:03.506Z,69.31
2023-05-21T01:43:33.897Z,69.66
2023-05-21T01:46:01.756Z,70.52
2023-05-21T01:48:29.523Z,71.04
2023-05-21T01:51:00.066Z,70.36
2023-05-21T01:53:26.516Z,70.15
2023-05-21T01:55:54.519Z,70.90
2023-05-21T01:58:21.519Z,71.31
2023-05-21T02:00:47.998Z,71.21
2023-05-21T02:03:17.106Z,70.48
2023-05-21T02:05:43.663Z,71.24
2023-05-21T02:08:10.128Z,71.29
2023-05-21T02:10:36.837Z,71.62
2023-05-21T02:13:03.496Z,72.56
2023-05-21T02:15:30.321Z,71.78
2023-05-21T02:17:58.405Z,71.49
2023-05-21T02:20:25.064Z,72.35
2023-05-21T02:22:51.555Z,72.20
2023-05-21T02:25:19.753Z,72.37
2023-05-21T02:27:46.954Z,73.11
2023-05-21T02:30:16.228Z,72.44
2023-05-21T02:32:43.302Z,72.67
2023-05-21T02:35:11.533Z,72.69
2023-05-21T02:37:40.269Z,72.75
2023-05-21T02:40:08.141Z,72.90
2023-05-21T02:42:34.541Z,72.70
2023-05-21T02:45:00.986Z,73.27
2023-05-21T02:47:27.484Z,73.38
2023-05-21T02:49:54.103Z,73.51
2023-05-21T02:52:23.916Z,73.44
2023-05-21T02:54:50.508Z,73.98
2023-05-21T02:57:18.252Z,74.17
2023-05-21T02:59:45.833Z,74.08
2023-05-21T03:02:12.409Z,74.23
2023-05-21T03:04:39.212Z,74.62
2023-05-21T03:07:06.045Z,74.09
2023-05-21T03:09:32.484Z,74.24
2023-05-21T03:11:58.903Z,74.87
2023-05-21T03:14:25.298Z,74.45
2023-05-21T03:16:51.740Z,74.26
2023-05-21T03:19:18.237Z,74.80
2023-05-21T03:21:44.714Z,74.99
2023-05-21T03:24:13.582Z,75.29
2023-05-21T03:26:40.016Z,74.86
2023-05-21T03:29:06.446Z,75.16
2023-05-21T03:31:32.902Z,75.32
2023-05-21T03:33:59.351Z,75.25
2023-05-21T03:36:25.831Z,74.90
2023-05-21T03:38:52.271Z,75.60
2023-05-21T03:41:18.682Z,76.02
2023-05-21T03:43:45.246Z,76.00
2023-05-21T03:46:11.654Z,76.16
2023-05-21T03:48:38.101Z,76.39
2023-05-21T03:51:04.517Z,75.80
2023-05-21T03:53:30.983Z,76.33
2023-05-21T03:55:57.349Z,76.31
2023-05-21T03:58:24.278Z,76.42
2023-05-21T04:00:51.003Z,76.86
2023-05-21T04:03:18.102Z,77.00
2023-05-21T04:05:44.841Z,76.38
2023-05-21T04:08:11.637Z,77.21
2023-05-21T04:10:38.016Z,76.54
2023-05-21T04:13:04.452Z,76.68
2023-05-21T04:15:31.094Z,77.23
2023-05-21T04:17:58.584Z,77.44
2023-05-21T04:20:25.018Z,77.24
2023-05-21T04:22:51.985Z,77.34
2023-05-21T04:25:20.336Z,77.81
2023-05-21T04:27:47.733Z,77.49
2023-05-21T04:30:14.154Z,76.85
2023-05-21T04:32:40.625Z,77.41
2023-05-21T04:35:09.998Z,77.60
2023-05-21T04:37:36.394Z,77.35
2023-05-21T04:40:03.149Z,78.43
2023-05-21T04:42:30.347Z,77.85
2023-05-21T04:44:59.286Z,77.19
2023-05-21T04:47:25.765Z,77.74
2023-05-21T04:49:53.342Z,77.88
2023-05-21T04:52:19.861Z,77.97
2023-05-21T04:54:47.821Z,78.48
2023-05-21T04:57:14.288Z,78.19
2023-05-21T04:59:41.369Z,78.18
2023-05-21T05:02:07.759Z,78.68
2023-05-21T05:04:34.195Z,78.17
2023-05-21T05:07:00.640Z,78.28
2023-05-21T05:09:27.112Z,77.91
2023-05-21T05:11:53.558Z,77.88
2023-05-21T05:14:19.915Z,77.31
2023-05-21T05:16:48.289Z,78.06
2023-05-21T05:19:14.943Z,78.07
2023-05-21T05:21:41.634Z,77.92
2023-05-21T05:24:08.025Z,77.92
2023-05-21T05:26:34.486Z,77.76
2023-05-21T05:29:01.006Z,77.89
2023-05-21T05:31:27.498Z,78.47
2023-05-21T05:33:53.994Z,77.43
2023-05-21T05:36:21.085Z,77.81
2023-05-21T05:38:47.476Z,78.13
2023-05-21T05:41:13.827Z,77.36
2023-05-21T05:43:40.218Z,77.44
2023-05-21T05:46:06.697Z,77.59
2023-05-21T05:48:33.173Z,77.54
2023-05-21T05:50:59.863Z,77.84
2023-05-21T05:53:26.258Z,77.12
2023-05-21T05:55:52.788Z,76.97
2023-05-21T05:58:19.322Z,76.77
2023-05-21T06:00:46.016Z,76.86
2023-05-21T06:03:12.700Z,77.26
2023-05-21T06:05:39.441Z,76.39
2023-05-21T06:08:06.336Z,75.83
2023-05-21T06:10:32.727Z,76.59
2023-05-21T06:12:59.092Z,75.66
2023-05-21T06:15:25.458Z,75.43
2023-05-21T06:17:51.875Z,75.22
2023-05-21T06:20:18.311Z,75.01
2023-05-21T06:22:44.705Z,73.71
2023-05-21T06:25:11.169Z,73.72
2023-05-21T06:27:38.557Z,72.55
2023-05-21T06:30:05.884Z,72.81
2023-05-21T06:32:32.338Z,72.23
2023-05-21T06:34:58.832Z,71.54
2023-05-21T06:37:26.666Z,72.16
2023-05-21T06:39:53.186Z,72.11
2023-05-21T06:42:19.595Z,72.15
2023-05-21T06:44:46.030Z,72.03
2023-05-21T06:47:12.528Z,72.31
2023-05-21T06:49:39.018Z,70.92
2023-05-21T06:52:05.738Z,72.22
2023-05-21T06:54:32.171Z,71.39
2023-05-21T06:56:58.732Z,71.62
2023-05-21T06:59:25.108Z,71.23
2023-05-21T07:01:51.486Z,71.79
2023-05-21T07:04:17.900Z,70.60
2023-05-21T07:06:44.267Z,71.08
2023-05-21T07:09:10.733Z,70.39
2023-05-21T07:11:37.175Z,70.68
2023-05-21T07:14:03.981Z,71.15
2023-05-21T07:16:30.573Z,71.24
2023-05-21T07:18:57.077Z,71.07
2023-05-21T07:21:24.249Z,70.20
2023-05-21T07:23:50.696Z,69.84
2023-05-21T07:26:17.229Z,68.59
2023-05-21T07:28:43.744Z,68.58
2023-05-21T07:31:12.105Z,68.75
2023-05-21T07:33:38.634Z,68.77
2023-05-21T07:36:05.482Z,68.68
2023-05-21T07:38:32.394Z,67.93
2023-05-21T07:40:58.806Z,66.77
2023-05-21T07:43:25.242Z,65.84
2023-05-21T07:45:51.810Z,65.07
2023-05-21T07:48:18.818Z,66.63
2023-05-21T07:50:45.292Z,64.08
2023-05-21T07:53:11.771Z,65.03
2023-05-21T07:55:38.480Z,66.29
2023-05-21T07:58:05.091Z,65.54
2023-05-21T08:00:42.587Z,64.17
2023-05-21T08:03:09.010Z,65.76
2023-05-21T08:05:35.936Z,64.15
2023-05-21T08:08:02.438Z,64.56
2023-05-21T08:10:29.017Z,63.12
2023-05-21T08:12:55.426Z,64.21
2023-05-21T08:15:22.333Z,65.87
2023-05-21T08:17:48.824Z,63.59
2023-05-21T08:20:15.462Z,63.60
2023-05-21T08:22:43.272Z,64.16
2023-05-21T08:25:09.887Z,64.03
2023-05-21T08:27:36.473Z,63.72
2023-05-21T08:30:02.974Z,63.63
2023-05-21T08:32:29.464Z,62.86
2023-05-21T08:34:56.378Z,63.07
2023-05-21T08:37:22.786Z,63.14
2023-05-21T08:39:49.142Z,62.24
2023-05-21T08:42:39.109Z,62.62
2023-05-21T08:45:09.091Z,63.39
2023-05-21T08:47:36.925Z,63.25
2023-05-21T08:50:04.867Z,61.76
2023-05-21T08:52:32.292Z,63.45
2023-05-21T08:54:59.797Z,62.08
2023-05-21T08:57:27.248Z,61.42
2023-05-21T08:59:54.737Z,61.34
2023-05-21T09:02:21.333Z,60.69
2023-05-21T09:04:49.735Z,59.21
2023-05-21T09:07:16.980Z,58.74
2023-05-21T09:09:57.650Z,59.20
2023-05-21T09:12:25.406Z,57.97
2023-05-21T09:14:52.494Z,58.80
2023-05-21T09:17:20.405Z,57.96
2023-05-21T09:20:13.214Z,57.59
2023-05-21T09:22:44.440Z,58.02
2023-05-21T09:25:13.673Z,56.05
2023-05-21T09:27:40.176Z,56.77
2023-05-21T09:30:14.984Z,57.15
2023-05-21T09:32:43.651Z,56.83
2023-05-21T09:35:15.908Z,55.80
2023-05-21T09:37:43.969Z,55.97
2023-05-21T09:40:18.380Z,57.07
2023-05-21T09:42:55.140Z,55.31
2023-05-21T09:45:23.829Z,54.94
2023-05-21T09:47:52.238Z,54.02
2023-05-21T09:50:26.968Z,56.47
2023-05-21T09:52:55.349Z,55.34
2023-05-21T09:55:26.564Z,53.53
2023-05-21T09:57:53.338Z,54.42
2023-05-21T10:00:24.255Z,55.01
2023-05-21T10:02:55.187Z,54.14
2023-05-21T10:05:26.681Z,53.04
2023-05-21T10:07:56.749Z,54.20
2023-05-21T10:10:23.683Z,55.59
2023-05-21T10:12:58.335Z,54.41
2023-05-21T10:15:27.901Z,51.84
2023-05-21T10:17:55.881Z,53.09
2023-05-21T10:20:22.600Z,52.99
2023-05-21T10:22:50.549Z,52.21
2023-05-21T10:25:17.359Z,53.17
2023-05-21T10:27:44.887Z,53.42
2023-05-21T10:30:11.741Z,52.43
2023-05-21T10:32:40.493Z,54.59
2023-05-21T10:35:08.832Z,52.41
2023-05-21T10:37:35.606Z,54.48
2023-05-21T10:40:02.251Z,52.59
2023-05-21T10:42:31.935Z,52.96
2023-05-21T10:45:04.036Z,52.16
2023-05-21T10:47:54.385Z,50.74
2023-05-21T10:50:57.577Z,50.21
2023-05-21T10:53:23.963Z,52.07
2023-05-21T10:56:06.653Z,52.61
2023-05-21T10:59:00.841Z,52.20
2023-05-21T11:01:34.043Z,50.58
2023-05-21T11:04:00.847Z,51.70
2023-05-21T11:06:27.940Z,51.96
2023-05-21T11:08:55.530Z,50.28
2023-05-21T11:11:46.017Z,51.80
2023-05-21T11:14:36.696Z,51.76
2023-05-21T11:17:16.328Z,53.28
2023-05-21T11:19:47.005Z,50.71
2023-05-21T11:22:27.092Z,50.82
2023-05-21T11:24:55.479Z,50.52
2023-05-21T11:27:39.651Z,50.01
2023-05-21T11:30:10.452Z,50.16
2023-05-21T11:33:12.211Z,48.40
2023-05-21T11:35:44.951Z,46.46
2023-05-21T11:38:11.485Z,46.60
2023-05-21T11:40:38.375Z,51.34
2023-05-21T11:43:04.919Z,47.14
2023-05-21T11:45:32.859Z,45.49
2023-05-21T11:48:00.403Z,47.82
2023-05-21T11:50:28.317Z,46.56
2023-05-21T11:52:54.765Z,46.16
2023-05-21T11:55:22.806Z,49.09
2023-05-21T11:57:53.649Z,46.55
2023-05-21T12:00:20.136Z,46.84
2023-05-21T12:02:50.025Z,48.19
2023-05-21T12:05:16.968Z,47.11
2023-05-21T12:07:48.599Z,45.38
2023-05-21T12:10:15.078Z,46.49
2023-05-21T12:12:53.976Z,47.65
2023-05-21T12:15:22.719Z,46.04
2023-05-21T12:17:52.675Z,46.40
2023-05-21T12:20:19.971Z,47.51
2023-05-21T12:22:49.253Z,46.04
2023-05-21T12:25:19.826Z,46.68
2023-05-21T12:27:46.723Z,46.33
2023-05-21T12:30:13.624Z,44.23
2023-05-21T12:32:45.774Z,46.27
2023-05-21T12:35:23.485Z,44.79
2023-05-21T12:37:51.065Z,46.22
2023-05-21T12:40:18.109Z,48.39
2023-05-21T12:42:44.701Z,45.73
2023-05-21T12:45:11.555Z,45.51
2023-05-21T12:47:38.433Z,45.28
2023-05-21T12:50:08.505Z,45.42
2023-05-21T12:52:35.018Z,46.48
2023-05-21T12:55:01.468Z,46.52
2023-05-21T12:57:35.793Z,45.14
2023-05-21T13:00:04.349Z,45.73
2023-05-21T13:02:38.663Z,47.63
2023-05-21T13:05:26.381Z,47.53
2023-05-21T13:07:52.735Z,47.48
2023-05-21T13:10:19.223Z,47.61
2023-05-21T13:12:46.280Z,48.66
2023-05-21T13:15:12.950Z,46.11
2023-05-21T13:17:39.390Z,46.40
2023-05-21T13:20:13.143Z,45.94
2023-05-21T13:22:47.302Z,46.33
2023-05-21T13:25:16.394Z,45.76
2023-05-21T13:27:43.353Z,44.04
2023-05-21T13:30:11.732Z,45.98
2023-05-21T13:32:40.079Z,46.27
2023-05-21T13:35:07.160Z,46.97
2023-05-21T13:37:36.158Z,46.48
2023-05-21T13:40:10.338Z,46.27
2023-05-21T13:42:40.052Z,47.74
2023-05-21T13:45:08.928Z,48.12
2023-05-21T13:47:37.606Z,45.49
2023-05-21T13:50:07.149Z,44.78
2023-05-21T13:52:33.628Z,46.51
2023-05-21T13:55:00.186Z,46.47
2023-05-21T13:57:30.872Z,46.19
2023-05-21T13:59:58.247Z,44.87
2023-05-21T14:02:24.892Z,44.54
2023-05-21T14:04:51.590Z,43.76
2023-05-21T14:07:18.099Z,44.52
2023-05-21T14:09:44.437Z,45.93
2023-05-21T14:12:10.841Z,44.10
2023-05-21T14:14:37.816Z,44.26
2023-05-21T14:17:04.667Z,43.75
2023-05-21T14:19:31.691Z,44.32
2023-05-21T14:21:59.774Z,43.21
2023-05-21T14:24:26.207Z,43.31
2023-05-21T14:26:52.578Z,44.66
2023-05-21T14:29:18.960Z,43.75
2023-05-21T14:31:46.286Z,43.72
2023-05-21T14:34:12.741Z,45.10
2023-05-21T14:36:39.288Z,43.64
2023-05-21T14:39:05.774Z,44.50
2023-05-21T14:41:32.135Z,44.07
2023-05-21T14:43:58.563Z,43.59
2023-05-21T14:46:25.158Z,45.28
2023-05-21T14:48:51.756Z,43.44
2023-05-21T14:51:19.163Z,44.52
2023-05-21T14:53:45.566Z,45.30
2023-05-21T14:56:11.998Z,46.74
2023-05-21T14:58:38.415Z,43.72
2023-05-21T15:01:05.100Z,42.84
2023-05-21T15:03:31.664Z,42.92
2023-05-21T15:05:58.604Z,43.86
2023-05-21T15:08:25.428Z,44.17
2023-05-21T15:10:52.093Z,44.14
2023-05-21T15:13:18.834Z,43.95
2023-05-21T15:15:45.458Z,46.58
2023-05-21T15:18:11.951Z,46.82
2023-05-21T15:20:38.383Z,47.36
2023-05-21T15:23:16.011Z,48.75
2023-05-21T15:25:42.990Z,47.68
2023-05-21T15:28:09.357Z,49.88
2023-05-21T15:30:35.732Z,49.24
2023-05-21T15:33:02.095Z,48.98
2023-05-21T15:35:28.599Z,49.37
2023-05-21T15:37:55.099Z,50.21
2023-05-21T15:40:21.538Z,50.52
2023-05-21T15:42:47.975Z,51.22
2023-05-21T15:45:14.514Z,51.88
2023-05-21T15:47:42.689Z,52.20
2023-05-21T15:50:10.294Z,51.91
2023-05-21T15:52:37.060Z,52.73
2023-05-21T15:55:03.481Z,51.93
2023-05-21T15:57:30.143Z,53.44
2023-05-21T15:59:56.570Z,53.96
2023-05-21T16:02:23.043Z,53.48
2023-05-21T16:04:51.635Z,53.08
2023-05-21T16:07:18.706Z,53.13
2023-05-21T16:09:45.147Z,54.62
2023-05-21T16:12:11.604Z,53.98
2023-05-21T16:14:37.987Z,54.74
2023-05-21T16:17:04.760Z,54.88
2023-05-21T16:19:31.549Z,54.24
2023-05-21T16:21:58.045Z,54.90
2023-05-21T16:24:24.510Z,55.05
2023-05-21T16:26:50.913Z,55.22
2023-05-21T16:29:17.328Z,55.43
2023-05-21T16:31:43.868Z,55.53
2023-05-21T16:34:10.433Z,55.99
2023-05-21T16:36:38.218Z,56.29
2023-05-21T16:39:04.616Z,56.52
2023-05-21T16:41:31.137Z,56.18
2023-05-21T16:43:57.519Z,56.86
2023-05-21T16:46:24.005Z,58.03
2023-05-21T16:48:50.597Z,57.41
2023-05-21T16:51:17.009Z,58.34
2023-05-21T16:53:43.436Z,58.79
2023-05-21T16:56:09.871Z,59.62
2023-05-21T16:58:36.346Z,59.51
2023-05-21T17:01:03.602Z,59.50
2023-05-21T17:03:32.361Z,59.81
2023-05-21T17:05:59.039Z,59.99
2023-05-21T17:08:25.420Z,60.21
2023-05-21T17:10:51.904Z,60.69
2023-05-21T17:13:22.702Z,61.21
2023-05-21T17:15:53.110Z,61.07
2023-05-21T17:18:19.646Z,61.48
2023-05-21T17:20:46.119Z,60.51
2023-05-21T17:23:12.704Z,60.89
2023-05-21T17:25:39.893Z,61.84
2023-05-21T17:28:06.706Z,61.33
2023-05-21T17:30:33.439Z,61.97
2023-05-21T17:33:02.075Z,62.32
2023-05-21T17:35:28.573Z,62.92
2023-05-21T17:37:55.210Z,62.57
2023-05-21T17:40:24.208Z,62.87
2023-05-21T17:42:51.731Z,62.80
2023-05-21T17:45:18.502Z,62.85
2023-05-21T17:47:44.970Z,62.81
2023-05-21T17:50:11.546Z,63.54
2023-05-21T17:52:38.113Z,64.04
2023-05-21T17:55:05.134Z,64.51
2023-05-21T17:57:31.562Z,64.88
2023-05-21T17:59:58.065Z,65.20
2023-05-21T18:02:25.320Z,65.49
2023-05-21T18:04:51.693Z,65.70
2023-05-21T18:07:18.048Z,66.32
2023-05-21T18:09:44.463Z,66.35
2023-05-21T18:12:11.062Z,66.62
2023-05-21T18:14:37.501Z,66.07
2023-05-21T18:17:04.171Z,66.46
2023-05-21T18:19:33.679Z,67.17
2023-05-21T18:22:00.176Z,67.15
2023-05-21T18:24:26.609Z,67.84
2023-05-21T18:26:53.026Z,68.00
2023-05-21T18:29:19.466Z,67.67
2023-05-21T18:31:46.040Z,68.26
2023-05-21T18:34:12.666Z,68.12
2023-05-21T18:36:39.993Z,68.86
2023-05-21T18:39:09.764Z,68.58
2023-05-21T18:41:37.178Z,68.85
2023-05-21T18:44:04.038Z,69.05
2023-05-21T18:46:31.583Z,68.77
2023-05-21T18:49:00.060Z,69.53
2023-05-21T18:51:26.564Z,69.57
2023-05-21T18:53:53.195Z,70.62
2023-05-21T18:56:19.632Z,70.12
2023-05-21T18:58:46.246Z,70.39
2023-05-21T19:01:12.761Z,69.87
2023-05-21T19:03:39.357Z,70.96
2023-05-21T19:06:05.838Z,70.87
2023-05-21T19:08:32.242Z,71.10
2023-05-21T19:10:58.610Z,71.87
2023-05-21T19:13:26.209Z,72.28
2023-05-21T19:15:52.685Z,72.25
2023-05-21T19:18:19.169Z,72.76
2023-05-21T19:20:45.554Z,72.74
2023-05-21T19:23:12.084Z,72.81
2023-05-21T19:25:38.577Z,73.49
2023-05-21T19:28:05.362Z,74.03
2023-05-21T19:30:34.793Z,74.02
2023-05-21T19:33:01.609Z,74.00
2023-05-21T19:35:28.151Z,74.39
2023-05-21T19:37:58.625Z,74.60
2023-05-21T19:40:25.373Z,74.74
2023-05-21T19:42:51.745Z,75.30
2023-05-21T19:45:18.146Z,75.17
2023-05-21T19:47:44.604Z,76.07
2023-05-21T19:50:11.688Z,75.83
2023-05-21T19:52:39.083Z,76.09
2023-05-21T19:55:08.531Z,76.58
2023-05-21T19:57:34.886Z,76.18
2023-05-21T20:00:01.318Z,76.46
2023-05-21T20:02:30.568Z,77.11
2023-05-21T20:04:58.693Z,77.13
2023-05-21T20:07:25.122Z,77.13
2023-05-21T20:09:52.239Z,77.20
2023-05-21T20:12:18.770Z,77.49
2023-05-21T20:14:49.497Z,77.37
2023-05-21T20:17:18.758Z,77.46
2023-05-21T20:19:48.034Z,77.13
2023-05-21T20:22:17.764Z,77.31
2023-05-21T20:24:44.163Z,77.80
2023-05-21T20:27:10.525Z,78.19
2023-05-21T20:29:36.898Z,77.42
2023-05-21T20:32:03.406Z,77.86
2023-05-21T20:34:29.854Z,78.11
2023-05-21T20:36:58.174Z,78.15
2023-05-21T20:39:27.175Z,78.62
2023-05-21T20:41:54.915Z,78.47
2023-05-21T20:44:22.410Z,79.11
2023-05-21T20:46:49.082Z,78.86
2023-05-21T20:49:15.642Z,79.12
2023-05-21T20:51:42.355Z,79.17
2023-05-21T20:54:09.829Z,79.46
2023-05-21T20:56:42.118Z,79.66
2023-05-21T20:59:10.892Z,79.90
2023-05-21T21:01:38.087Z,80.25
2023-05-21T21:04:04.916Z,80.66
2023-05-21T21:06:31.793Z,80.86
2023-05-21T21:08:58.397Z,80.76
2023-05-21T21:11:24.941Z,81.39
2023-05-21T21:13:51.848Z,81.48
2023-05-21T21:16:18.472Z,81.53
2023-05-21T21:18:46.710Z,81.67
2023-05-21T21:21:13.172Z,81.54
2023-05-21T21:23:39.612Z,81.41
2023-05-21T21:26:06.123Z,81.60
2023-05-21T21:28:32.468Z,82.16
2023-05-21T21:30:58.877Z,82.03
2023-05-21T21:33:26.603Z,82.41
2023-05-21T21:35:53.193Z,82.74
2023-05-21T21:38:19.615Z,82.16
2023-05-21T21:40:46.051Z,82.05
2023-05-21T21:43:12.496Z,82.38
2023-05-21T21:45:38.941Z,82.41
2023-05-21T21:48:05.757Z,82.24
2023-05-21T21:50:32.197Z,82.28
2023-05-21T21:52:59.801Z,82.56
2023-05-21T21:55:26.393Z,82.34
2023-05-21T21:57:52.806Z,82.64
2023-05-21T22:00:19.506Z,82.75
2023-05-21T22:02:46.661Z,82.82
2023-05-21T22:05:14.615Z,83.01
2023-05-21T22:07:42.537Z,82.94
2023-05-21T22:10:09.402Z,83.17
2023-05-21T22:12:35.957Z,82.89
2023-05-21T22:15:05.220Z,82.94
2023-05-21T22:17:32.681Z,83.49
2023-05-21T22:19:59.038Z,82.41
2023-05-21T22:22:25.962Z,83.08
2023-05-21T22:24:53.155Z,83.25
2023-05-21T22:27:20.588Z,84.00
2023-05-21T22:29:47.027Z,83.44
2023-05-21T22:32:13.827Z,83.54
2023-05-21T22:34:41.752Z,83.96
2023-05-21T22:37:08.124Z,84.62
2023-05-21T22:39:34.518Z,85.01
2023-05-21T22:42:01.448Z,84.96
2023-05-21T22:44:27.875Z,85.25
2023-05-21T22:46:56.283Z,85.48
2023-05-21T22:49:22.821Z,85.66
2023-05-21T22:51:49.468Z,85.40
2023-05-21T22:54:15.973Z,85.95
2023-05-21T22:56:42.390Z,85.38
2023-05-21T22:59:08.779Z,85.62
2023-05-21T23:01:36.898Z,85.61
2023-05-21T23:04:03.774Z,85.97
2023-05-21T23:06:30.597Z,85.98
2023-05-21T23:08:57.061Z,86.16
2023-05-21T23:11:23.551Z,86.16
2023-05-21T23:13:49.954Z,86.11
2023-05-21T23:16:16.877Z,86.39
2023-05-21T23:18:43.318Z,86.24
2023-05-21T23:21:09.943Z,85.62
2023-05-21T23:23:36.421Z,86.22
2023-05-21T23:26:02.856Z,86.33
2023-05-21T23:28:29.316Z,85.85
2023-05-21T23:30:55.908Z,85.30
2023-05-21T23:33:22.406Z,85.96
2023-05-21T23:35:48.780Z,86.93
2023-05-21T23:38:15.300Z,86.83
2023-05-21T23:40:42.171Z,87.82
2023-05-21T23:43:08.645Z,88.04
2023-05-21T23:45:35.053Z,89.16
2023-05-21T23:48:01.542Z,87.96
2023-05-21T23:50:27.959Z,88.55
2023-05-21T23:52:54.469Z,88.69
2023-05-21T23:55:20.919Z,88.54
2023-05-21T23:57:47.298Z,88.65
